Time;durP1;ratioP1;P1;durP2;ratioP2;P2;SDS_P1;SDS_P2;PMS_P1;PMS_P2;Temp;Humidity;BMP_temperature;BMP_pressure;BME280_temperature;BME280_humidity;BME280_pressure;Samples;Min_cycle;Max_cycle;Signal;HPM_P1;HPM_P2
2021/07/08 00:01:55;;;;;;;14.05;9.18;;;;;;;;;;5013634;28;20174;-71
2021/07/08 00:04:20;;;;;;;11.50;9.32;;;;;;;;;;5020445;28;20202;-71
2021/07/08 00:06:46;;;;;;;11.07;9.18;;;;;;;;;;5013575;28;20469;-71
2021/07/08 00:09:11;;;;;;;12.15;9.20;;;;;;;;;;5026156;28;20190;-70
2021/07/08 00:11:37;;;;;;;12.52;8.98;;;;;;;;;;5014781;28;20194;-71
2021/07/08 00:14:04;;;;;;;11.75;9.32;;;;;;;;;;5020531;28;20291;-71
2021/07/08 00:16:30;;;;;;;11.05;8.80;;;;;;;;;;5013045;28;20308;-70
2021/07/08 00:18:56;;;;;;;13.25;9.20;;;;;;;;;;5018781;28;20667;-70
2021/07/08 00:21:22;;;;;;;12.43;8.80;;;;;;;;;;5010630;28;20202;-70
2021/07/08 00:23:48;;;;;;;12.93;9.48;;;;;;;;;;5016640;28;20190;-71
2021/07/08 00:26:14;;;;;;;11.73;8.75;;;;;;;;;;5021837;28;20174;-70
2021/07/08 00:28:40;;;;;;;11.35;8.70;;;;;;;;;;5016579;28;20268;-70
2021/07/08 00:31:05;;;;;;;11.52;9.32;;;;;;;;;;5020046;28;20229;-70
2021/07/08 00:33:31;;;;;;;10.82;9.18;;;;;;;;;;5010026;28;20222;-70
2021/07/08 00:35:56;;;;;;;11.02;9.05;;;;;;;;;;5022486;28;20186;-70
2021/07/08 00:38:22;;;;;;;11.75;9.30;;;;;;;;;;5008699;28;20519;-71
2021/07/08 00:40:48;;;;;;;11.57;9.80;;;;;;;;;;5022861;28;20664;-70
2021/07/08 00:43:13;;;;;;;14.77;9.32;;;;;;;;;;5004617;28;20271;-70
2021/07/08 00:45:39;;;;;;;11.23;8.88;;;;;;;;;;5017943;28;20222;-70
2021/07/08 00:48:05;;;;;;;12.07;9.27;;;;;;;;;;5011505;28;20963;-70
2021/07/08 00:50:36;;;;;;;15.93;9.48;;;;;;;;;;5022576;28;20194;-70
2021/07/08 00:53:05;;;;;;;13.02;9.95;;;;;;;;;;5007484;28;21800;-70
2021/07/08 00:55:31;;;;;;;13.07;9.68;;;;;;;;;;5022908;28;20194;-70
2021/07/08 00:57:56;;;;;;;11.27;9.45;;;;;;;;;;5019432;28;20475;-71
2021/07/08 01:00:39;;;;;;;17.95;9.52;;;;;;;;;;5012565;28;20213;-70
2021/07/08 01:03:10;;;;;;;11.15;9.57;;;;;;;;;;5019348;28;20646;-71
2021/07/08 01:05:37;;;;;;;11.55;9.60;;;;;;;;;;5013804;28;20608;-70
2021/07/08 01:08:04;;;;;;;12.70;9.95;;;;;;;;;;5022300;28;20185;-70
2021/07/08 01:10:30;;;;;;;17.20;10.10;;;;;;;;;;5013920;28;20666;-70
2021/07/08 01:12:56;;;;;;;15.75;11.35;;;;;;;;;;5019030;28;20226;-70
2021/07/08 01:15:22;;;;;;;12.27;10.38;;;;;;;;;;5010809;28;20618;-70
2021/07/08 01:17:48;;;;;;;14.10;11.10;;;;;;;;;;5018733;28;20214;-70
2021/07/08 01:20:17;;;;;;;14.10;10.45;;;;;;;;;;5010928;28;20197;-70
2021/07/08 01:22:42;;;;;;;14.98;10.25;;;;;;;;;;5022569;28;20193;-70
2021/07/08 01:25:09;;;;;;;13.95;10.32;;;;;;;;;;5003436;28;20191;-70
2021/07/08 01:27:36;;;;;;;12.48;10.95;;;;;;;;;;5019043;28;20243;-70
2021/07/08 01:30:05;;;;;;;13.07;11.27;;;;;;;;;;5011010;28;20193;-70
2021/07/08 01:32:30;;;;;;;12.85;10.95;;;;;;;;;;5017965;28;20305;-70
2021/07/08 01:34:56;;;;;;;12.57;11.27;;;;;;;;;;5020083;28;20261;-71
2021/07/08 01:37:21;;;;;;;14.88;10.18;;;;;;;;;;5016959;28;20241;-70
2021/07/08 01:39:46;;;;;;;17.02;11.38;;;;;;;;;;5021916;28;20601;-71
2021/07/08 01:42:12;;;;;;;15.68;11.38;;;;;;;;;;5007045;28;20189;-71
2021/07/08 01:44:38;;;;;;;15.82;11.45;;;;;;;;;;4998868;28;20182;-71
2021/07/08 01:47:03;;;;;;;14.32;12.07;;;;;;;;;;5009192;28;20204;-70
2021/07/08 01:49:29;;;;;;;13.95;10.70;;;;;;;;;;5018693;28;20641;-70
2021/07/08 01:51:54;;;;;;;14.77;11.38;;;;;;;;;;5008564;28;20199;-70
2021/07/08 01:54:20;;;;;;;15.60;12.15;;;;;;;;;;5022528;28;20173;-71
2021/07/08 01:56:47;;;;;;;13.60;11.48;;;;;;;;;;5010244;28;21260;-70
2021/07/08 01:59:12;;;;;;;12.35;11.10;;;;;;;;;;5024391;28;20189;-70
2021/07/08 02:01:38;;;;;;;15.15;11.60;;;;;;;;;;5009294;28;20213;-70
2021/07/08 02:04:03;;;;;;;14.93;11.32;;;;;;;;;;5019779;28;20179;-70
2021/07/08 02:06:29;;;;;;;13.25;11.48;;;;;;;;;;5018082;28;20228;-70
2021/07/08 02:08:54;;;;;;;16.13;12.25;;;;;;;;;;5008689;28;20186;-70
2021/07/08 02:11:20;;;;;;;13.82;11.82;;;;;;;;;;5014284;28;20259;-70
2021/07/08 02:13:45;;;;;;;12.90;11.10;;;;;;;;;;5010894;28;20218;-70
2021/07/08 02:16:11;;;;;;;14.05;11.82;;;;;;;;;;5017223;28;20216;-71
2021/07/08 02:18:38;;;;;;;15.85;12.18;;;;;;;;;;5002454;28;20194;-70
2021/07/08 02:21:04;;;;;;;12.52;10.95;;;;;;;;;;5019136;28;20710;-70
2021/07/08 02:23:31;;;;;;;14.90;11.20;;;;;;;;;;5013521;28;20257;-71
2021/07/08 02:25:57;;;;;;;15.70;11.70;;;;;;;;;;5019506;28;20185;-70
2021/07/08 02:28:22;;;;;;;15.75;11.05;;;;;;;;;;5004054;28;20191;-70
2021/07/08 02:30:47;;;;;;;15.45;11.23;;;;;;;;;;5018158;28;20194;-71
2021/07/08 02:33:13;;;;;;;13.35;11.88;;;;;;;;;;4997620;28;20209;-71
2021/07/08 02:35:38;;;;;;;16.67;11.98;;;;;;;;;;5017848;28;20209;-71
2021/07/08 02:38:04;;;;;;;14.05;11.75;;;;;;;;;;4996887;28;20212;-71
2021/07/08 02:40:32;;;;;;;15.23;11.85;;;;;;;;;;5010664;28;20253;-70
2021/07/08 02:42:59;;;;;;;14.95;11.15;;;;;;;;;;5019557;28;20215;-70
2021/07/08 02:45:28;;;;;;;17.77;12.68;;;;;;;;;;5016028;28;20218;-70
2021/07/08 02:47:54;;;;;;;14.93;12.30;;;;;;;;;;5025741;28;20304;-71
2021/07/08 02:50:21;;;;;;;15.30;11.80;;;;;;;;;;5013339;28;20682;-71
2021/07/08 02:52:48;;;;;;;17.52;13.10;;;;;;;;;;5027804;28;20355;-71
2021/07/08 02:55:15;;;;;;;17.92;13.05;;;;;;;;;;5014329;28;20198;-71
2021/07/08 02:57:40;;;;;;;18.10;11.80;;;;;;;;;;5022291;28;20192;-71
2021/07/08 03:00:08;;;;;;;15.63;11.68;;;;;;;;;;5015596;28;20296;-70
2021/07/08 03:02:34;;;;;;;16.05;13.13;;;;;;;;;;5019788;28;20221;-71
2021/07/08 03:04:59;;;;;;;18.50;13.02;;;;;;;;;;5014856;28;20234;-70
2021/07/08 03:07:25;;;;;;;17.98;12.55;;;;;;;;;;5025823;28;20365;-71
2021/07/08 03:09:50;;;;;;;16.95;13.18;;;;;;;;;;5010572;28;20221;-70
2021/07/08 03:12:15;;;;;;;14.15;12.65;;;;;;;;;;5026491;28;20757;-71
2021/07/08 03:14:41;;;;;;;15.35;11.85;;;;;;;;;;5024139;28;20709;-70
2021/07/08 03:17:06;;;;;;;16.80;12.65;;;;;;;;;;5015605;28;20201;-70
2021/07/08 03:19:31;;;;;;;16.95;11.85;;;;;;;;;;5023382;28;20186;-70
2021/07/08 03:21:57;;;;;;;14.25;10.90;;;;;;;;;;5016507;28;20213;-71
2021/07/08 03:24:22;;;;;;;15.40;11.82;;;;;;;;;;5024018;28;20264;-71
2021/07/08 03:26:47;;;;;;;16.92;12.75;;;;;;;;;;5014532;28;20201;-70
2021/07/08 03:29:13;;;;;;;13.85;11.35;;;;;;;;;;5021699;28;20252;-70
2021/07/08 03:31:38;;;;;;;14.68;11.40;;;;;;;;;;5016018;28;20267;-70
2021/07/08 03:34:04;;;;;;;13.57;10.52;;;;;;;;;;5022144;28;20182;-70
2021/07/08 03:36:29;;;;;;;14.35;11.88;;;;;;;;;;5001416;28;20189;-70
2021/07/08 03:38:54;;;;;;;18.65;12.57;;;;;;;;;;5021006;28;20661;-70
2021/07/08 03:41:20;;;;;;;15.65;12.35;;;;;;;;;;5009033;28;20638;-70
2021/07/08 03:43:45;;;;;;;17.23;13.15;;;;;;;;;;5022100;28;20542;-70
2021/07/08 03:46:11;;;;;;;16.50;13.35;;;;;;;;;;5026228;28;20201;-70
2021/07/08 03:48:36;;;;;;;16.38;13.18;;;;;;;;;;5012612;28;20222;-70
2021/07/08 03:51:02;;;;;;;17.17;13.07;;;;;;;;;;5023591;28;20622;-70
2021/07/08 03:53:27;;;;;;;17.65;14.55;;;;;;;;;;5012200;28;20206;-71
2021/07/08 03:55:53;;;;;;;21.25;14.18;;;;;;;;;;5016835;28;20190;-71
2021/07/08 03:58:18;;;;;;;18.88;13.93;;;;;;;;;;5013199;28;20675;-70
2021/07/08 04:00:44;;;;;;;17.08;12.82;;;;;;;;;;5018186;28;20234;-71
2021/07/08 04:03:12;;;;;;;18.33;13.52;;;;;;;;;;5014423;28;20228;-71
2021/07/08 04:05:39;;;;;;;16.90;13.07;;;;;;;;;;5024678;28;20578;-71
2021/07/08 04:08:06;;;;;;;17.02;13.18;;;;;;;;;;5012805;28;20257;-71
2021/07/08 04:10:33;;;;;;;16.33;13.18;;;;;;;;;;5023951;28;20210;-71
2021/07/08 04:12:58;;;;;;;14.85;12.13;;;;;;;;;;5015081;28;20241;-71
2021/07/08 04:15:24;;;;;;;12.55;11.27;;;;;;;;;;5022410;28;20233;-71
2021/07/08 04:17:50;;;;;;;13.80;11.20;;;;;;;;;;5019868;28;20222;-70
2021/07/08 04:20:18;;;;;;;13.93;11.45;;;;;;;;;;5010605;28;20190;-70
2021/07/08 04:22:44;;;;;;;15.20;12.15;;;;;;;;;;5022672;28;20182;-71
2021/07/08 04:25:10;;;;;;;21.23;12.98;;;;;;;;;;5016270;28;20195;-70
2021/07/08 04:27:36;;;;;;;15.85;13.10;;;;;;;;;;5022708;28;20197;-70
2021/07/08 04:30:05;;;;;;;14.93;12.73;;;;;;;;;;5013680;28;20190;-69
2021/07/08 04:32:30;;;;;;;14.98;11.98;;;;;;;;;;5020853;28;20245;-70
2021/07/08 04:34:55;;;;;;;16.88;11.88;;;;;;;;;;5013279;28;20186;-70
2021/07/08 04:37:21;;;;;;;14.40;11.50;;;;;;;;;;5019398;28;20688;-71
2021/07/08 04:39:46;;;;;;;12.98;10.07;;;;;;;;;;5014642;28;20201;-71
2021/07/08 04:42:12;;;;;;;14.75;10.18;;;;;;;;;;5023371;28;20174;-71
2021/07/08 04:44:37;;;;;;;11.85;10.15;;;;;;;;;;5013555;28;20243;-71
2021/07/08 04:47:04;;;;;;;11.85;10.25;;;;;;;;;;5021490;28;20653;-71
2021/07/08 04:49:29;;;;;;;11.07;9.70;;;;;;;;;;5020644;28;20284;-71
2021/07/08 04:51:55;;;;;;;13.65;11.10;;;;;;;;;;5013959;28;20189;-70
2021/07/08 04:54:20;;;;;;;12.02;10.02;;;;;;;;;;5022807;28;20199;-71
2021/07/08 04:56:45;;;;;;;14.88;10.63;;;;;;;;;;5014054;28;20637;-70
2021/07/08 04:59:11;;;;;;;12.25;10.13;;;;;;;;;;5022648;28;20202;-70
2021/07/08 05:01:36;;;;;;;12.02;9.75;;;;;;;;;;5011900;28;20664;-71
2021/07/08 05:04:02;;;;;;;11.20;9.05;;;;;;;;;;5019959;28;20252;-71
2021/07/08 05:06:27;;;;;;;13.90;9.82;;;;;;;;;;5015194;28;20193;-71
2021/07/08 05:08:53;;;;;;;11.38;8.88;;;;;;;;;;5024686;28;20193;-70
2021/07/08 05:11:18;;;;;;;9.57;8.55;;;;;;;;;;5014528;28;20197;-71
2021/07/08 05:13:43;;;;;;;11.98;9.27;;;;;;;;;;5025137;28;20206;-71
2021/07/08 05:16:09;;;;;;;13.75;8.73;;;;;;;;;;5016639;28;20814;-72
2021/07/08 05:18:34;;;;;;;11.30;9.40;;;;;;;;;;5013636;28;20194;-70
2021/07/08 05:21:00;;;;;;;11.90;9.43;;;;;;;;;;5020468;28;20214;-71
2021/07/08 05:23:27;;;;;;;11.43;8.70;;;;;;;;;;5011896;28;20275;-71
2021/07/08 05:25:53;;;;;;;12.15;8.65;;;;;;;;;;5020415;28;20178;-70
2021/07/08 05:28:18;;;;;;;12.68;9.57;;;;;;;;;;5008689;28;20197;-71
2021/07/08 05:30:43;;;;;;;9.80;8.35;;;;;;;;;;5020688;28;20190;-71
2021/07/08 05:33:09;;;;;;;13.27;9.75;;;;;;;;;;5011236;28;20214;-70
2021/07/08 05:35:34;;;;;;;10.25;8.55;;;;;;;;;;5020662;28;20186;-70
2021/07/08 05:38:00;;;;;;;11.90;7.43;;;;;;;;;;5011954;28;20666;-70
2021/07/08 05:40:25;;;;;;;16.00;8.38;;;;;;;;;;5020982;28;20186;-70
2021/07/08 05:42:50;;;;;;;10.00;8.82;;;;;;;;;;5010703;28;20313;-70
2021/07/08 05:45:16;;;;;;;10.80;9.20;;;;;;;;;;5019715;28;20614;-70
2021/07/08 05:47:42;;;;;;;13.07;9.50;;;;;;;;;;5021625;28;20218;-70
2021/07/08 05:50:08;;;;;;;14.45;9.48;;;;;;;;;;5010361;28;20218;-70
2021/07/08 05:52:34;;;;;;;10.02;8.60;;;;;;;;;;5019618;28;20216;-70
2021/07/08 05:54:59;;;;;;;10.48;9.15;;;;;;;;;;5013603;28;20190;-70
2021/07/08 05:57:24;;;;;;;13.02;9.18;;;;;;;;;;5021226;28;20321;-70
2021/07/08 05:59:50;;;;;;;11.35;9.57;;;;;;;;;;5013603;28;20224;-70
2021/07/08 06:02:16;;;;;;;16.88;10.30;;;;;;;;;;5020790;28;20565;-70
2021/07/08 06:04:41;;;;;;;14.10;9.55;;;;;;;;;;5012547;28;20584;-71
2021/07/08 06:07:07;;;;;;;18.75;11.40;;;;;;;;;;5020813;28;20201;-70
2021/07/08 06:09:32;;;;;;;13.25;10.77;;;;;;;;;;5012969;28;20190;-70
2021/07/08 06:11:58;;;;;;;14.82;11.05;;;;;;;;;;5020556;28;20202;-70
2021/07/08 06:14:24;;;;;;;16.45;11.40;;;;;;;;;;4994095;28;20245;-70
2021/07/08 06:16:49;;;;;;;17.10;11.35;;;;;;;;;;5020068;28;20209;-70
2021/07/08 06:19:14;;;;;;;19.58;11.70;;;;;;;;;;5020845;28;20182;-70
2021/07/08 06:21:40;;;;;;;17.92;12.10;;;;;;;;;;5012797;28;20197;-70
2021/07/08 06:24:08;;;;;;;16.73;11.43;;;;;;;;;;5019829;28;20259;-70
2021/07/08 06:26:33;;;;;;;17.13;11.70;;;;;;;;;;5012557;28;20201;-70
2021/07/08 06:28:59;;;;;;;18.52;11.55;;;;;;;;;;5021816;28;20313;-70
2021/07/08 06:31:24;;;;;;;16.35;11.30;;;;;;;;;;5011826;28;20649;-70
2021/07/08 06:33:49;;;;;;;13.75;10.63;;;;;;;;;;5017800;28;20567;-70
2021/07/08 06:36:15;;;;;;;15.18;11.38;;;;;;;;;;5013126;28;20284;-70
2021/07/08 06:38:40;;;;;;;14.00;11.07;;;;;;;;;;5022502;28;20624;-70
2021/07/08 06:41:05;;;;;;;14.05;10.13;;;;;;;;;;5012352;28;20193;-71
2021/07/08 06:43:31;;;;;;;16.58;10.23;;;;;;;;;;5022614;28;20182;-70
2021/07/08 06:45:56;;;;;;;12.65;9.95;;;;;;;;;;5013483;28;20201;-70
2021/07/08 06:48:22;;;;;;;14.13;10.07;;;;;;;;;;5019864;28;20226;-71
2021/07/08 06:50:47;;;;;;;16.30;9.85;;;;;;;;;;5021323;28;20205;-71
2021/07/08 06:53:12;;;;;;;17.45;10.55;;;;;;;;;;5009738;28;20245;-71
2021/07/08 06:55:38;;;;;;;17.30;9.68;;;;;;;;;;5019788;28;20209;-71
2021/07/08 06:58:04;;;;;;;13.07;8.63;;;;;;;;;;5012208;28;20283;-71
2021/07/08 07:00:33;;;;;;;16.42;10.38;;;;;;;;;;5019108;28;20382;-71
2021/07/08 07:03:00;;;;;;;15.63;9.88;;;;;;;;;;5006345;28;20705;-71
2021/07/08 07:05:27;;;;;;;13.10;10.20;;;;;;;;;;5021143;28;20277;-71
2021/07/08 07:07:53;;;;;;;14.63;9.65;;;;;;;;;;5011923;28;20212;-71
2021/07/08 07:10:21;;;;;;;13.40;8.63;;;;;;;;;;5017757;28;21221;-71
2021/07/08 07:12:48;;;;;;;11.35;9.57;;;;;;;;;;5010138;28;20571;-71
2021/07/08 07:15:15;;;;;;;12.00;8.55;;;;;;;;;;5019308;28;20182;-71
2021/07/08 07:17:40;;;;;;;16.40;8.43;;;;;;;;;;5009409;28;20221;-72
2021/07/08 07:20:08;;;;;;;11.30;8.20;;;;;;;;;;5018693;28;20630;-71
2021/07/08 07:22:34;;;;;;;13.48;8.15;;;;;;;;;;5020455;28;20229;-71
2021/07/08 07:25:00;;;;;;;12.57;7.75;;;;;;;;;;5013413;28;20205;-71
2021/07/08 07:27:25;;;;;;;12.05;7.18;;;;;;;;;;5020564;28;20240;-72
2021/07/08 07:29:51;;;;;;;12.30;6.65;;;;;;;;;;5013129;28;20201;-72
2021/07/08 07:32:16;;;;;;;13.65;7.18;;;;;;;;;;5023301;28;20206;-70
2021/07/08 07:34:41;;;;;;;11.55;6.60;;;;;;;;;;5018027;28;20189;-71
2021/07/08 07:37:07;;;;;;;11.18;6.22;;;;;;;;;;5024310;28;20186;-71
2021/07/08 07:39:32;;;;;;;10.63;6.05;;;;;;;;;;4998355;28;20193;-71
2021/07/08 07:41:57;;;;;;;8.88;6.30;;;;;;;;;;5024719;28;20194;-71
2021/07/08 07:44:23;;;;;;;9.45;5.25;;;;;;;;;;5014462;28;20190;-71
2021/07/08 07:46:48;;;;;;;10.23;6.05;;;;;;;;;;5025230;28;20473;-69
2021/07/08 07:49:14;;;;;;;11.85;6.85;;;;;;;;;;5011603;28;20237;-70
2021/07/08 07:51:39;;;;;;;12.85;6.47;;;;;;;;;;5024750;28;20269;-70
2021/07/08 07:54:05;;;;;;;12.70;6.50;;;;;;;;;;5022646;28;20237;-70
2021/07/08 07:56:30;;;;;;;8.05;5.47;;;;;;;;;;5017130;28;20201;-70
2021/07/08 07:58:56;;;;;;;8.60;5.82;;;;;;;;;;5021963;28;20276;-69
2021/07/08 08:01:21;;;;;;;9.77;6.07;;;;;;;;;;5014677;28;20213;-69
2021/07/08 08:03:46;;;;;;;9.48;5.90;;;;;;;;;;5020273;28;20627;-69
2021/07/08 08:08:56;;;;;;;10.90;6.13;;;;;;;;;;5019141;28;20289;-69
2021/07/08 08:11:21;;;;;;;10.13;5.53;;;;;;;;;;5016107;28;20607;-69
2021/07/08 08:13:47;;;;;;;9.75;5.35;;;;;;;;;;5019895;28;21926;-72
2021/07/08 08:16:13;;;;;;;8.52;4.47;;;;;;;;;;5011909;28;20565;-70
2021/07/08 08:18:39;;;;;;;6.43;3.03;;;;;;;;;;5004519;28;20225;-70
2021/07/08 08:21:04;;;;;;;9.85;3.90;;;;;;;;;;5012712;28;20193;-70
2021/07/08 08:23:30;;;;;;;5.32;4.18;;;;;;;;;;5022736;28;20522;-72
2021/07/08 08:25:55;;;;;;;6.10;4.38;;;;;;;;;;5022301;28;20619;-71
2021/07/08 08:28:21;;;;;;;6.85;4.60;;;;;;;;;;5011748;28;20204;-71
2021/07/08 08:30:47;;;;;;;5.53;4.20;;;;;;;;;;4328994;28;10000829;-70
2021/07/08 08:33:13;;;;;;;7.68;4.05;;;;;;;;;;5010125;28;20244;-71
2021/07/08 08:35:40;;;;;;;7.57;4.65;;;;;;;;;;5021648;28;20186;-70
2021/07/08 08:38:05;;;;;;;8.07;4.90;;;;;;;;;;5009939;28;20677;-70
2021/07/08 08:40:31;;;;;;;6.72;4.53;;;;;;;;;;5003940;28;20617;-71
2021/07/08 08:42:56;;;;;;;9.00;4.75;;;;;;;;;;5005278;28;20186;-70
2021/07/08 08:45:22;;;;;;;6.97;3.70;;;;;;;;;;5021491;28;20190;-70
2021/07/08 08:47:56;;;;;;;7.43;3.25;;;;;;;;;;5009616;28;20229;-71
2021/07/08 08:50:24;;;;;;;7.60;3.45;;;;;;;;;;4999233;28;20197;-69
2021/07/08 08:52:50;;;;;;;7.43;3.45;;;;;;;;;;5007954;28;20272;-70
2021/07/08 08:55:17;;;;;;;5.75;3.00;;;;;;;;;;5019466;28;20221;-70
2021/07/08 08:57:45;;;;;;;4.97;3.03;;;;;;;;;;5013250;28;20643;-70
2021/07/08 09:00:42;;;;;;;6.32;3.72;;;;;;;;;;5010305;28;20206;-69
2021/07/08 09:03:15;;;;;;;6.78;4.03;;;;;;;;;;5007387;28;20665;-70
2021/07/08 09:05:43;;;;;;;9.90;3.97;;;;;;;;;;5002984;28;20178;-70
2021/07/08 09:08:19;;;;;;;5.63;2.95;;;;;;;;;;5001277;28;20187;-71
2021/07/08 09:10:47;;;;;;;5.07;3.38;;;;;;;;;;5022215;28;20531;-70
2021/07/08 09:13:13;;;;;;;9.48;3.80;;;;;;;;;;5018150;28;20206;-73
2021/07/08 09:15:40;;;;;;;6.60;4.60;;;;;;;;;;4996909;28;20676;-70
2021/07/08 09:18:06;;;;;;;6.68;3.78;;;;;;;;;;5016012;28;20183;-70
2021/07/08 09:20:31;;;;;;;7.45;3.80;;;;;;;;;;5010035;28;20539;-70
2021/07/08 09:23:10;;;;;;;6.55;3.78;;;;;;;;;;5021417;28;20598;-69
2021/07/08 09:25:36;;;;;;;6.10;3.63;;;;;;;;;;5014132;28;20214;-72
2021/07/08 09:28:14;;;;;;;6.22;3.17;;;;;;;;;;5014213;28;20266;-71
2021/07/08 09:30:41;;;;;;;5.43;3.15;;;;;;;;;;4995885;28;20288;-70
2021/07/08 09:33:28;;;;;;;4.63;2.95;;;;;;;;;;5019018;28;20200;-71
2021/07/08 09:36:04;;;;;;;6.93;3.45;;;;;;;;;;5013069;28;20190;-70
2021/07/08 09:38:30;;;;;;;7.35;3.70;;;;;;;;;;5018968;28;20182;-71
2021/07/08 09:41:11;;;;;;;7.40;4.00;;;;;;;;;;5010764;28;20190;-71
2021/07/08 09:43:38;;;;;;;4.30;3.13;;;;;;;;;;5022704;28;20214;-70
2021/07/08 09:46:05;;;;;;;6.65;3.38;;;;;;;;;;5011883;28;20177;-72
2021/07/08 09:48:30;;;;;;;6.47;3.63;;;;;;;;;;5024042;28;20245;-71
2021/07/08 09:50:56;;;;;;;6.50;3.85;;;;;;;;;;5016049;28;20186;-71
2021/07/08 09:53:24;;;;;;;7.38;3.08;;;;;;;;;;5022016;28;20203;-71
2021/07/08 09:58:50;;;;;;;5.28;3.78;;;;;;;;;;5021146;28;20194;-73
2021/07/08 10:01:16;;;;;;;6.15;3.15;;;;;;;;;;4997522;28;20214;-71
2021/07/08 10:03:45;;;;;;;5.20;3.83;;;;;;;;;;5008653;28;20240;-71
2021/07/08 10:06:11;;;;;;;7.75;3.72;;;;;;;;;;5010657;28;20265;-72
2021/07/08 10:08:37;;;;;;;6.95;3.35;;;;;;;;;;5022342;28;20182;-72
2021/07/08 10:11:04;;;;;;;3.13;2.83;;;;;;;;;;5020559;28;20240;-71
2021/07/08 10:13:32;;;;;;;3.70;2.65;;;;;;;;;;5011459;28;20677;-70
2021/07/08 10:16:00;;;;;;;4.93;2.83;;;;;;;;;;5018058;28;20183;-72
2021/07/08 10:18:29;;;;;;;6.47;3.22;;;;;;;;;;5013554;28;20193;-71
2021/07/08 10:20:55;;;;;;;9.27;3.75;;;;;;;;;;5001499;28;20189;-71
2021/07/08 10:23:20;;;;;;;6.78;3.72;;;;;;;;;;4994353;28;20186;-71
2021/07/08 10:25:47;;;;;;;3.88;3.28;;;;;;;;;;5001541;28;20218;-72
2021/07/08 10:28:13;;;;;;;8.02;3.60;;;;;;;;;;5006408;28;20231;-71
2021/07/08 10:30:39;;;;;;;6.60;3.45;;;;;;;;;;5019076;28;20645;-71
2021/07/08 10:33:05;;;;;;;4.85;3.53;;;;;;;;;;5013141;28;20210;-74
2021/07/08 10:35:42;;;;;;;5.43;3.20;;;;;;;;;;4998142;28;20231;-70
2021/07/08 10:38:26;;;;;;;5.85;3.60;;;;;;;;;;5008144;28;20615;-72
2021/07/08 10:40:52;;;;;;;7.53;3.42;;;;;;;;;;5019754;28;20190;-70
2021/07/08 10:43:17;;;;;;;8.85;3.60;;;;;;;;;;5008711;28;20194;-72
2021/07/08 10:45:44;;;;;;;5.57;2.80;;;;;;;;;;5015993;28;20574;-71
2021/07/08 10:48:11;;;;;;;6.65;2.88;;;;;;;;;;5018692;28;20226;-71
2021/07/08 10:50:45;;;;;;;6.55;2.70;;;;;;;;;;5013718;28;20663;-71
2021/07/08 10:53:16;;;;;;;4.72;2.97;;;;;;;;;;5020988;28;20206;-73
2021/07/08 10:55:45;;;;;;;4.03;2.35;;;;;;;;;;5011123;28;20729;-72
2021/07/08 10:58:37;;;;;;;4.32;2.50;;;;;;;;;;5018849;28;20217;-71
2021/07/08 11:01:03;;;;;;;4.35;2.50;;;;;;;;;;5011212;28;20218;-71
2021/07/08 11:03:46;;;;;;;3.97;2.30;;;;;;;;;;5025419;28;20181;-71
2021/07/08 11:06:29;;;;;;;3.28;2.60;;;;;;;;;;5013775;28;20197;-72
2021/07/08 11:08:58;;;;;;;6.97;2.78;;;;;;;;;;5021463;28;20307;-72
2021/07/08 11:11:23;;;;;;;3.35;1.90;;;;;;;;;;5013141;28;20246;-72
2021/07/08 11:14:23;;;;;;;4.55;2.63;;;;;;;;;;5021563;28;20217;-71
2021/07/08 11:16:49;;;;;;;4.80;2.50;;;;;;;;;;5014426;28;20653;-73
2021/07/08 11:19:31;;;;;;;3.97;2.38;;;;;;;;;;5023786;28;20182;-70
2021/07/08 11:22:03;;;;;;;4.20;2.42;;;;;;;;;;5015596;28;20179;-72
2021/07/08 11:24:31;;;;;;;3.17;2.10;;;;;;;;;;5025602;28;20193;-75
2021/07/08 11:27:05;;;;;;;5.45;2.50;;;;;;;;;;5012435;28;20182;-72
2021/07/08 11:29:49;;;;;;;9.70;5.28;;;;;;;;;;4999638;28;20245;-74
2021/07/08 11:32:28;;;;;;;10.50;5.60;;;;;;;;;;5013640;28;20684;-70
2021/07/08 11:34:58;;;;;;;7.82;5.35;;;;;;;;;;5022753;28;20325;-71
2021/07/08 11:37:30;;;;;;;6.95;5.10;;;;;;;;;;5014535;28;20196;-71
2021/07/08 11:39:58;;;;;;;7.70;5.18;;;;;;;;;;5024203;28;20186;-70
2021/07/08 11:42:28;;;;;;;5.47;4.20;;;;;;;;;;5009604;28;20537;-70
2021/07/08 11:44:53;;;;;;;6.32;3.10;;;;;;;;;;5022405;28;20182;-71
2021/07/08 11:47:20;;;;;;;3.58;2.45;;;;;;;;;;5013488;28;21026;-71
2021/07/08 11:49:48;;;;;;;6.25;2.97;;;;;;;;;;5019664;28;20705;-70
2021/07/08 11:52:22;;;;;;;4.90;2.72;;;;;;;;;;5012371;28;20190;-73
2021/07/08 11:54:59;;;;;;;3.42;2.47;;;;;;;;;;5025188;28;20194;-71
2021/07/08 11:57:25;;;;;;;4.80;3.30;;;;;;;;;;5016971;28;20197;-69
2021/07/08 11:59:50;;;;;;;6.22;3.03;;;;;;;;;;5019673;28;20209;-69
2021/07/08 12:02:36;;;;;;;4.40;3.22;;;;;;;;;;5015823;28;24145;-71
2021/07/08 12:05:12;;;;;;;4.00;3.33;;;;;;;;;;5019051;28;20616;-74
2021/07/08 12:07:43;;;;;;;8.18;4.45;;;;;;;;;;5014349;28;20268;-71
2021/07/08 12:10:10;;;;;;;6.90;4.88;;;;;;;;;;5023104;28;20190;-68
2021/07/08 12:12:35;;;;;;;8.05;4.53;;;;;;;;;;5014934;28;20244;-70
2021/07/08 12:15:01;;;;;;;6.72;4.78;;;;;;;;;;5014469;28;20217;-69
2021/07/08 12:17:28;;;;;;;7.80;4.93;;;;;;;;;;5021173;28;20214;-69
2021/07/08 12:20:07;;;;;;;9.55;4.72;;;;;;;;;;5010926;28;20656;-69
2021/07/08 12:22:32;;;;;;;6.82;4.60;;;;;;;;;;5019437;28;20193;-69
2021/07/08 12:24:57;;;;;;;5.68;4.20;;;;;;;;;;5013848;28;20190;-70
2021/07/08 12:27:23;;;;;;;6.85;4.97;;;;;;;;;;5020220;28;20182;-69
2021/07/08 12:29:48;;;;;;;6.63;4.07;;;;;;;;;;5014464;28;20257;-72
2021/07/08 12:32:20;;;;;;;7.88;4.18;;;;;;;;;;5025576;28;20178;-70
2021/07/08 12:34:55;;;;;;;8.18;4.35;;;;;;;;;;5014148;28;20194;-70
2021/07/08 12:37:23;;;;;;;5.35;3.83;;;;;;;;;;5016508;28;20275;-71
2021/07/08 12:40:07;;;;;;;7.00;4.10;;;;;;;;;;5009254;28;20234;-70
2021/07/08 12:42:35;;;;;;;6.00;3.85;;;;;;;;;;5024545;28;20532;-71
2021/07/08 12:45:11;;;;;;;5.35;3.47;;;;;;;;;;5010890;28;20201;-71
2021/07/08 12:47:37;;;;;;;4.55;3.38;;;;;;;;;;5019786;28;20228;-71
2021/07/08 12:50:06;;;;;;;7.32;4.10;;;;;;;;;;5009432;28;20226;-70
2021/07/08 12:52:31;;;;;;;5.90;4.18;;;;;;;;;;5018514;28;20202;-69
2021/07/08 12:54:58;;;;;;;7.00;4.03;;;;;;;;;;5013733;28;22275;-69
2021/07/08 12:57:23;;;;;;;7.43;4.90;;;;;;;;;;5019181;28;20197;-70
2021/07/08 12:59:59;;;;;;;6.22;4.57;;;;;;;;;;5021129;28;20211;-69
2021/07/08 13:02:33;;;;;;;4.75;4.20;;;;;;;;;;5018812;28;20194;-70
2021/07/08 13:05:01;;;;;;;7.22;4.78;;;;;;;;;;5021034;28;20231;-69
2021/07/08 13:07:27;;;;;;;7.53;4.57;;;;;;;;;;5015963;28;20194;-70
2021/07/08 13:10:02;;;;;;;9.93;5.28;;;;;;;;;;5020417;28;20185;-69
2021/07/08 13:12:28;;;;;;;6.30;4.05;;;;;;;;;;5011172;28;20216;-69
2021/07/08 13:14:55;;;;;;;8.93;4.45;;;;;;;;;;5024222;28;20188;-70
2021/07/08 13:17:31;;;;;;;5.95;3.85;;;;;;;;;;5011383;28;20189;-71
2021/07/08 13:20:15;;;;;;;6.15;4.32;;;;;;;;;;5019467;28;20221;-70
2021/07/08 13:22:44;;;;;;;7.90;4.07;;;;;;;;;;5014081;28;20278;-69
2021/07/08 13:25:13;;;;;;;8.65;4.55;;;;;;;;;;5018162;28;20370;-70
2021/07/08 13:27:40;;;;;;;10.25;5.32;;;;;;;;;;5012190;28;20506;-69
2021/07/08 13:30:26;;;;;;;9.57;5.72;;;;;;;;;;5020361;28;20523;-70
2021/07/08 13:33:05;;;;;;;8.70;5.22;;;;;;;;;;5010183;28;20327;-70
2021/07/08 13:35:52;;;;;;;8.35;5.53;;;;;;;;;;5019727;28;20179;-70
2021/07/08 13:38:31;;;;;;;11.45;5.85;;;;;;;;;;5012461;28;20210;-70
2021/07/08 13:41:07;;;;;;;11.18;5.82;;;;;;;;;;5019574;28;20637;-70
2021/07/08 13:43:39;;;;;;;8.35;5.40;;;;;;;;;;5004967;28;20209;-70
2021/07/08 13:46:08;;;;;;;9.93;6.22;;;;;;;;;;5021827;28;20657;-70
2021/07/08 13:48:36;;;;;;;11.20;6.20;;;;;;;;;;5010191;28;20242;-72
2021/07/08 13:51:02;;;;;;;11.10;7.07;;;;;;;;;;5020887;28;20206;-69
2021/07/08 13:53:27;;;;;;;10.13;6.30;;;;;;;;;;5011947;28;20249;-70
2021/07/08 13:55:52;;;;;;;10.30;6.10;;;;;;;;;;5020505;28;20240;-70
2021/07/08 13:58:18;;;;;;;7.63;6.32;;;;;;;;;;4991592;28;20197;-70
2021/07/08 14:00:44;;;;;;;7.65;6.35;;;;;;;;;;5018285;28;20209;-69
2021/07/08 14:03:09;;;;;;;7.43;4.90;;;;;;;;;;5019330;28;20173;-71
2021/07/08 14:05:34;;;;;;;6.53;5.05;;;;;;;;;;5013040;28;20213;-70
2021/07/08 14:07:59;;;;;;;8.23;5.80;;;;;;;;;;5024391;28;20182;-68
2021/07/08 14:10:25;;;;;;;7.95;5.30;;;;;;;;;;5010916;28;20182;-70
2021/07/08 14:12:50;;;;;;;7.15;5.25;;;;;;;;;;5019267;28;20214;-70
2021/07/08 14:15:15;;;;;;;6.72;5.30;;;;;;;;;;5011253;28;20200;-70
2021/07/08 14:17:41;;;;;;;8.48;5.80;;;;;;;;;;5021742;28;20490;-70
2021/07/08 14:20:08;;;;;;;7.78;5.32;;;;;;;;;;5009611;28;20216;-69
2021/07/08 14:22:33;;;;;;;6.20;4.78;;;;;;;;;;5020210;28;20298;-70
2021/07/08 14:24:58;;;;;;;7.65;5.38;;;;;;;;;;5010551;28;20300;-70
2021/07/08 14:27:23;;;;;;;7.05;5.10;;;;;;;;;;5021492;28;20186;-69
2021/07/08 14:29:49;;;;;;;7.93;4.95;;;;;;;;;;5011643;28;20190;-70
2021/07/08 14:32:14;;;;;;;8.07;5.38;;;;;;;;;;5018978;28;20178;-70
2021/07/08 14:34:39;;;;;;;5.30;4.47;;;;;;;;;;5018857;28;20185;-70
2021/07/08 14:37:05;;;;;;;6.40;5.38;;;;;;;;;;5007564;28;20226;-69
2021/07/08 14:39:30;;;;;;;7.10;4.88;;;;;;;;;;5021123;28;20265;-70